createdAt,value
2022-10-31T00:02:23.410Z,4.40
2022-10-31T00:05:11.764Z,4.28
2022-10-31T00:08:01.427Z,4.25
2022-10-31T00:10:49.713Z,5.00
2022-10-31T00:13:38.019Z,4.50
2022-10-31T00:16:27.098Z,4.75
2022-10-31T00:19:15.437Z,4.60
2022-10-31T00:22:03.753Z,4.60
2022-10-31T00:24:53.447Z,4.65
2022-10-31T00:27:41.780Z,4.15
2022-10-31T00:30:30.378Z,4.20
2022-10-31T00:33:18.946Z,4.20
2022-10-31T00:36:09.066Z,4.78
2022-10-31T00:38:57.596Z,4.13
2022-10-31T00:41:47.271Z,4.10
2022-10-31T00:44:35.620Z,4.50
2022-10-31T00:47:23.964Z,4.03
2022-10-31T00:50:12.284Z,4.30
2022-10-31T00:53:00.632Z,4.47
2022-10-31T00:55:48.995Z,4.32
2022-10-31T00:58:38.952Z,4.25
2022-10-31T01:01:27.437Z,3.92
2022-10-31T01:04:16.085Z,4.15
2022-10-31T01:07:04.439Z,4.80
2022-10-31T01:09:52.710Z,3.50
2022-10-31T01:12:42.464Z,4.32
2022-10-31T01:15:32.120Z,4.03
2022-10-31T01:18:20.430Z,4.40
2022-10-31T01:21:11.138Z,4.68
2022-10-31T01:23:59.481Z,4.20
2022-10-31T01:26:47.789Z,4.72
2022-10-31T01:29:36.224Z,5.05
2022-10-31T01:32:25.926Z,4.10
2022-10-31T01:35:14.315Z,4.50
2022-10-31T01:38:02.687Z,4.68
2022-10-31T01:40:51.149Z,4.78
2022-10-31T01:43:54.966Z,4.65
2022-10-31T01:46:46.798Z,4.55
2022-10-31T01:49:40.001Z,3.88
2022-10-31T01:52:34.266Z,5.00
2022-10-31T01:55:30.065Z,4.55
2022-10-31T01:58:24.544Z,4.63
2022-10-31T02:01:14.365Z,4.82
2022-10-31T02:04:02.892Z,5.03
2022-10-31T02:06:57.229Z,4.93
2022-10-31T02:09:48.091Z,4.97
2022-10-31T02:12:38.130Z,4.45
2022-10-31T02:15:26.720Z,4.20
2022-10-31T02:18:15.546Z,5.05
2022-10-31T02:21:13.329Z,4.68
2022-10-31T02:24:26.883Z,5.15
2022-10-31T02:27:34.568Z,5.32
2022-10-31T02:30:25.716Z,4.38
2022-10-31T02:33:25.768Z,5.00
2022-10-31T02:36:22.630Z,4.72
2022-10-31T02:39:16.391Z,5.00
2022-10-31T02:42:10.281Z,4.25
2022-10-31T02:45:04.615Z,4.75
2022-10-31T02:47:56.181Z,4.82
2022-10-31T02:50:51.192Z,4.40
2022-10-31T02:53:40.629Z,4.78
2022-10-31T02:56:29.027Z,4.50
2022-10-31T02:59:18.221Z,5.32
2022-10-31T03:02:19.485Z,4.60
2022-10-31T03:05:20.666Z,5.15
2022-10-31T03:08:23.046Z,5.00
2022-10-31T03:11:12.330Z,5.15
2022-10-31T03:14:07.708Z,4.72
2022-10-31T03:16:59.634Z,5.20
2022-10-31T03:19:51.506Z,5.60
2022-10-31T03:22:42.834Z,5.53
2022-10-31T03:25:36.183Z,5.35
2022-10-31T03:28:31.319Z,5.05
2022-10-31T03:31:23.170Z,5.43
2022-10-31T03:34:14.737Z,5.00
2022-10-31T03:37:06.293Z,5.43
2022-10-31T03:39:57.257Z,5.88
2022-10-31T03:45:43.566Z,6.22
2022-10-31T03:48:31.978Z,6.05
2022-10-31T03:51:27.188Z,5.80
2022-10-31T03:54:22.656Z,6.20
2022-10-31T03:57:19.472Z,5.93
2022-10-31T04:00:11.482Z,5.40
2022-10-31T04:03:03.591Z,7.18
2022-10-31T04:05:54.959Z,5.97
2022-10-31T04:08:47.946Z,6.25
2022-10-31T04:11:41.438Z,5.97
2022-10-31T04:14:33.383Z,6.45
2022-10-31T04:17:25.761Z,6.25
2022-10-31T04:20:17.711Z,5.85
2022-10-31T04:23:08.905Z,5.80
2022-10-31T04:26:00.621Z,6.07
2022-10-31T04:28:48.982Z,5.88
2022-10-31T04:31:37.295Z,6.22
2022-10-31T04:34:26.974Z,7.25
2022-10-31T04:37:15.298Z,6.95
2022-10-31T04:40:03.669Z,8.55
2022-10-31T04:42:52.016Z,8.43
2022-10-31T04:45:40.577Z,9.18
2022-10-31T04:48:28.935Z,8.80
2022-10-31T04:51:18.674Z,9.43
2022-10-31T04:54:07.189Z,9.55
2022-10-31T04:56:55.481Z,8.98
2022-10-31T04:59:43.808Z,10.00
2022-10-31T05:02:32.208Z,9.13
2022-10-31T05:05:22.544Z,9.15
2022-10-31T05:08:12.238Z,9.55
2022-10-31T05:11:04.401Z,13.02
2022-10-31T05:13:53.213Z,13.23
2022-10-31T05:16:41.565Z,14.60
2022-10-31T05:19:29.880Z,16.83
2022-10-31T05:22:18.185Z,20.10
2022-10-31T05:25:11.196Z,22.27
2022-10-31T05:28:00.233Z,20.73
2022-10-31T05:30:49.171Z,22.63
2022-10-31T05:33:37.524Z,22.60
2022-10-31T05:36:25.817Z,23.15
2022-10-31T05:39:14.135Z,21.40
2022-10-31T05:42:03.861Z,22.23
2022-10-31T05:44:52.194Z,22.70
2022-10-31T05:47:40.779Z,20.15
2022-10-31T05:50:30.635Z,20.40
2022-10-31T05:53:18.997Z,21.98
2022-10-31T05:56:07.746Z,20.67
2022-10-31T05:58:57.711Z,20.80
2022-10-31T06:01:46.066Z,20.02
2022-10-31T06:04:34.529Z,19.13
2022-10-31T06:07:24.144Z,18.90
2022-10-31T06:10:12.585Z,18.80
2022-10-31T06:13:00.931Z,19.20
2022-10-31T06:15:50.681Z,20.25
2022-10-31T06:18:39.001Z,20.75
2022-10-31T06:21:27.627Z,20.80
2022-10-31T06:24:16.049Z,22.55
2022-10-31T06:27:04.353Z,22.38
2022-10-31T06:29:53.040Z,26.02
2022-10-31T06:32:42.778Z,29.20
2022-10-31T06:35:31.118Z,29.33
2022-10-31T06:38:19.436Z,30.60
2022-10-31T06:41:08.482Z,30.13
2022-10-31T06:43:56.792Z,30.30
2022-10-31T06:46:45.220Z,29.30
2022-10-31T06:49:34.926Z,29.30
2022-10-31T06:52:24.380Z,31.83
2022-10-31T06:55:12.677Z,31.33
2022-10-31T06:58:03.271Z,33.38
2022-10-31T07:00:52.010Z,33.47
2022-10-31T07:03:40.419Z,33.63
2022-10-31T07:06:30.124Z,33.88
2022-10-31T07:09:18.469Z,34.50
2022-10-31T07:12:07.273Z,36.53
2022-10-31T07:14:56.007Z,36.03
2022-10-31T07:17:44.345Z,35.33
2022-10-31T07:20:33.632Z,38.08
2022-10-31T07:23:23.408Z,38.53
2022-10-31T07:26:12.517Z,40.33
2022-10-31T07:29:00.975Z,38.70
2022-10-31T07:31:49.314Z,39.33
2022-10-31T07:34:37.630Z,38.70
2022-10-31T07:37:29.595Z,39.25
2022-10-31T07:40:20.214Z,37.67
2022-10-31T07:43:13.883Z,39.53
2022-10-31T07:46:02.691Z,40.38
2022-10-31T07:48:51.001Z,36.30
2022-10-31T07:51:44.042Z,39.08
2022-10-31T07:54:34.770Z,37.67
2022-10-31T07:57:25.328Z,38.88
2022-10-31T08:00:14.639Z,41.63
2022-10-31T08:03:04.253Z,38.72
2022-10-31T08:05:52.691Z,39.80
2022-10-31T08:08:40.991Z,38.17
2022-10-31T08:11:29.303Z,41.85
2022-10-31T08:14:18.986Z,40.58
2022-10-31T08:17:07.289Z,41.90
2022-10-31T08:19:55.628Z,42.45
2022-10-31T08:22:44.116Z,40.67
2022-10-31T08:25:38.441Z,39.05
2022-10-31T08:28:27.405Z,38.30
2022-10-31T08:31:17.038Z,42.15
2022-10-31T08:34:05.420Z,38.38
2022-10-31T08:36:54.375Z,38.78
2022-10-31T08:39:42.719Z,38.83
2022-10-31T08:42:31.046Z,36.80
2022-10-31T08:45:19.403Z,37.17
2022-10-31T08:48:11.875Z,38.72
2022-10-31T08:51:01.524Z,37.45
2022-10-31T08:53:49.832Z,38.00
2022-10-31T08:56:38.172Z,36.85
2022-10-31T08:59:26.462Z,36.53
2022-10-31T09:02:14.871Z,36.60
2022-10-31T09:05:04.861Z,36.97
2022-10-31T09:07:53.544Z,35.63
2022-10-31T09:10:41.989Z,37.22
2022-10-31T09:13:30.457Z,35.95
2022-10-31T09:16:18.813Z,36.38
2022-10-31T09:19:11.254Z,34.92
2022-10-31T09:22:01.667Z,37.10
2022-10-31T09:24:49.961Z,38.00
2022-10-31T09:27:38.357Z,36.00
2022-10-31T09:30:27.098Z,37.53
2022-10-31T09:33:16.194Z,37.90
2022-10-31T09:36:04.661Z,37.38
2022-10-31T09:38:55.091Z,36.85
2022-10-31T09:42:11.243Z,37.35
2022-10-31T09:45:09.293Z,36.97
2022-10-31T09:48:27.402Z,38.58
2022-10-31T09:51:19.873Z,38.17
2022-10-31T09:54:16.065Z,36.28
2022-10-31T09:57:04.920Z,35.28
2022-10-31T09:59:53.415Z,37.85
2022-10-31T10:02:46.939Z,36.42
2022-10-31T10:05:42.659Z,35.28
2022-10-31T10:08:35.347Z,34.85
2022-10-31T10:11:45.342Z,34.20
2022-10-31T10:14:44.557Z,35.47
2022-10-31T10:17:40.167Z,35.08
2022-10-31T10:20:34.062Z,36.35
2022-10-31T10:23:36.831Z,34.05
2022-10-31T10:29:35.367Z,33.58
2022-10-31T10:32:26.920Z,34.30
2022-10-31T10:35:24.062Z,34.30
2022-10-31T10:38:19.438Z,36.50
2022-10-31T10:41:13.586Z,36.10
2022-10-31T10:44:03.958Z,36.78
2022-10-31T10:47:15.868Z,36.28
2022-10-31T10:50:09.101Z,35.53
2022-10-31T10:53:09.505Z,34.35
2022-10-31T10:56:03.401Z,33.60
2022-10-31T10:58:58.433Z,33.72
2022-10-31T11:01:50.304Z,34.63
2022-10-31T11:04:41.959Z,33.92
2022-10-31T11:07:40.748Z,34.53
2022-10-31T11:10:29.187Z,33.22
2022-10-31T11:13:24.571Z,34.30
2022-10-31T11:16:15.548Z,33.97
2022-10-31T11:22:15.098Z,33.08
2022-10-31T11:25:13.628Z,32.97
2022-10-31T11:28:03.344Z,36.50
2022-10-31T11:30:55.244Z,35.28
2022-10-31T11:33:49.452Z,34.15
2022-10-31T11:36:41.340Z,34.70
2022-10-31T11:39:30.223Z,35.40
2022-10-31T11:42:18.595Z,35.90
2022-10-31T11:45:15.850Z,35.60
2022-10-31T11:48:16.833Z,35.83
2022-10-31T11:54:02.690Z,36.65
2022-10-31T11:56:52.347Z,36.10
2022-10-31T11:59:41.382Z,36.00
2022-10-31T12:02:29.937Z,36.63
2022-10-31T12:05:21.858Z,35.90
2022-10-31T12:08:11.833Z,36.17
2022-10-31T12:11:10.845Z,34.63
2022-10-31T12:14:10.436Z,36.30
2022-10-31T12:17:04.796Z,34.05
2022-10-31T12:20:03.922Z,34.78
2022-10-31T12:23:00.894Z,32.63
2022-10-31T12:25:57.198Z,33.72
2022-10-31T12:29:14.849Z,34.63
2022-10-31T12:32:17.156Z,35.35
2022-10-31T12:35:36.456Z,33.80
2022-10-31T12:38:39.359Z,36.15
2022-10-31T12:41:42.508Z,34.95
2022-10-31T12:45:14.106Z,34.88
2022-10-31T12:48:22.768Z,33.28
2022-10-31T12:51:17.397Z,34.33
2022-10-31T12:54:26.921Z,35.05
2022-10-31T12:57:24.897Z,33.88
2022-10-31T13:00:17.945Z,34.03
2022-10-31T13:03:19.998Z,34.42
2022-10-31T13:06:15.221Z,33.17
2022-10-31T13:09:07.796Z,33.13
2022-10-31T13:12:00.833Z,33.55
2022-10-31T13:14:54.284Z,35.55
2022-10-31T13:17:48.582Z,33.90
2022-10-31T13:20:42.806Z,34.67
2022-10-31T13:26:48.354Z,34.20
2022-10-31T13:29:42.279Z,33.90
2022-10-31T13:32:39.530Z,36.35
2022-10-31T13:35:36.551Z,34.00
2022-10-31T13:38:31.818Z,36.45
2022-10-31T13:41:32.215Z,35.92
2022-10-31T13:44:24.965Z,35.25
2022-10-31T13:47:26.714Z,35.50
2022-10-31T13:50:23.216Z,32.75
2022-10-31T13:53:22.024Z,32.83
2022-10-31T13:56:19.856Z,32.75
2022-10-31T13:59:23.865Z,33.25
2022-10-31T14:02:18.216Z,34.72
2022-10-31T14:05:19.876Z,35.42
2022-10-31T14:08:21.801Z,35.25
2022-10-31T14:11:11.283Z,39.50
2022-10-31T14:14:02.106Z,38.58
2022-10-31T14:16:57.247Z,34.67
2022-10-31T14:19:45.543Z,39.63
2022-10-31T14:22:38.635Z,40.08
2022-10-31T14:25:34.043Z,41.13
2022-10-31T14:28:24.773Z,37.88
2022-10-31T14:31:33.017Z,38.63
2022-10-31T14:34:26.733Z,42.92
2022-10-31T14:37:51.416Z,39.67
2022-10-31T14:40:52.752Z,39.95
2022-10-31T14:43:57.418Z,40.75
2022-10-31T14:46:53.433Z,41.03
2022-10-31T14:50:14.835Z,40.65
2022-10-31T14:53:06.245Z,39.13
2022-10-31T14:55:58.694Z,41.83
2022-10-31T14:58:50.187Z,39.85
2022-10-31T15:01:40.889Z,41.42
2022-10-31T15:04:33.455Z,38.83
2022-10-31T15:07:25.497Z,38.88
2022-10-31T15:10:23.976Z,37.70
2022-10-31T15:13:20.541Z,36.42
2022-10-31T15:16:12.941Z,34.95
2022-10-31T15:19:05.549Z,33.88
2022-10-31T15:21:55.759Z,34.70
2022-10-31T15:24:45.072Z,37.20
2022-10-31T15:27:34.528Z,34.80
2022-10-31T15:30:26.134Z,35.08
2022-10-31T15:33:22.500Z,34.63
2022-10-31T15:36:23.970Z,34.55
2022-10-31T15:39:16.155Z,36.63
2022-10-31T15:42:04.823Z,38.53
2022-10-31T15:44:58.989Z,37.13
2022-10-31T15:47:55.616Z,36.83
2022-10-31T15:50:49.143Z,36.95
2022-10-31T15:53:43.870Z,37.75
2022-10-31T15:56:34.023Z,36.28
2022-10-31T15:59:24.977Z,37.95
2022-10-31T16:05:04.222Z,34.17
2022-10-31T16:07:53.955Z,37.10
2022-10-31T16:10:42.524Z,36.20
2022-10-31T16:13:33.135Z,34.75
2022-10-31T16:16:34.705Z,33.92
2022-10-31T16:19:27.534Z,32.08
2022-10-31T16:22:23.287Z,33.58
2022-10-31T16:25:15.129Z,33.80
2022-10-31T16:28:07.755Z,34.47
2022-10-31T16:30:57.831Z,34.80
2022-10-31T16:33:46.279Z,35.27
2022-10-31T16:36:39.059Z,34.90
2022-10-31T16:39:28.865Z,34.33
2022-10-31T16:42:17.277Z,33.63
2022-10-31T16:45:07.726Z,34.20
2022-10-31T16:47:56.369Z,37.20
2022-10-31T16:50:47.410Z,41.30
2022-10-31T16:53:35.788Z,35.17
2022-10-31T16:56:30.172Z,35.28
2022-10-31T16:59:18.754Z,37.03
2022-10-31T17:02:12.318Z,39.22
2022-10-31T17:05:00.824Z,37.85
2022-10-31T17:07:51.718Z,40.10
2022-10-31T17:13:32.721Z,36.05
2022-10-31T17:16:21.075Z,32.58
2022-10-31T17:19:12.827Z,34.25
2022-10-31T17:22:02.778Z,34.38
2022-10-31T17:24:51.159Z,44.95
2022-10-31T17:27:42.274Z,41.47
2022-10-31T17:30:36.856Z,35.03
2022-10-31T17:33:25.345Z,35.95
2022-10-31T17:36:13.750Z,42.40
2022-10-31T17:39:03.304Z,38.35
2022-10-31T17:41:52.760Z,36.28
2022-10-31T17:44:41.082Z,35.80
2022-10-31T17:47:30.971Z,33.88
2022-10-31T17:50:22.267Z,35.95
2022-10-31T17:53:10.689Z,33.50
2022-10-31T17:56:03.898Z,33.60
2022-10-31T17:58:52.296Z,33.97
2022-10-31T18:01:40.707Z,35.90
2022-10-31T18:04:30.487Z,36.30
2022-10-31T18:07:19.450Z,37.90
2022-10-31T18:10:09.079Z,35.88
2022-10-31T18:12:57.458Z,37.10
2022-10-31T18:15:45.854Z,38.17
2022-10-31T18:18:34.229Z,37.28
2022-10-31T18:21:23.930Z,39.08
2022-10-31T18:24:12.457Z,41.58
2022-10-31T18:27:00.795Z,41.92
2022-10-31T18:29:49.123Z,40.78
2022-10-31T18:32:37.506Z,42.30
2022-10-31T18:35:25.835Z,40.33
2022-10-31T18:38:15.530Z,41.55
2022-10-31T18:41:03.903Z,36.10
2022-10-31T18:43:56.079Z,37.03
2022-10-31T18:46:44.443Z,35.72
2022-10-31T18:49:33.582Z,36.05
2022-10-31T18:52:21.988Z,35.03
2022-10-31T18:55:11.948Z,36.42
2022-10-31T18:58:00.703Z,35.90
2022-10-31T19:00:49.214Z,36.85
2022-10-31T19:03:37.822Z,37.58
2022-10-31T19:06:28.587Z,36.67
2022-10-31T19:09:16.987Z,37.63
2022-10-31T19:12:07.178Z,38.60
2022-10-31T19:14:55.608Z,39.38
2022-10-31T19:17:44.205Z,37.72
2022-10-31T19:20:33.034Z,40.53
2022-10-31T19:23:21.400Z,38.28
2022-10-31T19:26:10.837Z,38.38
2022-10-31T19:29:04.324Z,37.85
2022-10-31T19:31:52.725Z,39.47
2022-10-31T19:34:41.111Z,38.42
2022-10-31T19:37:29.598Z,38.95
2022-10-31T19:40:18.413Z,38.28
2022-10-31T19:43:07.057Z,37.20
2022-10-31T19:45:58.309Z,38.55
2022-10-31T19:48:47.007Z,38.60
2022-10-31T19:51:35.367Z,37.85
2022-10-31T19:54:23.685Z,37.70
2022-10-31T19:57:12.098Z,37.15
2022-10-31T20:00:00.442Z,36.72
2022-10-31T20:02:50.239Z,37.30
2022-10-31T20:05:42.385Z,36.35
2022-10-31T20:08:32.029Z,36.42
2022-10-31T20:11:21.865Z,36.25
2022-10-31T20:14:13.397Z,36.25
2022-10-31T20:17:05.262Z,37.72
2022-10-31T20:19:55.323Z,37.25
2022-10-31T20:22:44.703Z,37.55
2022-10-31T20:25:33.389Z,38.63
2022-10-31T20:28:21.757Z,38.22
2022-10-31T20:31:11.699Z,40.25
2022-10-31T20:34:00.386Z,40.25
2022-10-31T20:36:50.066Z,38.80
2022-10-31T20:39:38.438Z,38.20
2022-10-31T20:42:26.782Z,39.67
2022-10-31T20:45:15.152Z,41.72
2022-10-31T20:48:03.849Z,39.30
2022-10-31T20:50:57.439Z,38.10
2022-10-31T20:53:47.144Z,39.13
2022-10-31T20:56:35.500Z,37.10
2022-10-31T20:59:23.877Z,37.13
2022-10-31T21:02:12.253Z,35.90
2022-10-31T21:05:01.830Z,38.42
2022-10-31T21:10:41.818Z,34.95
2022-10-31T21:13:31.856Z,36.60
2022-10-31T21:16:24.051Z,36.20
2022-10-31T21:19:12.924Z,35.97
2022-10-31T21:22:01.348Z,35.15
2022-10-31T21:24:49.657Z,36.08
2022-10-31T21:27:39.341Z,35.28
2022-10-31T21:30:27.684Z,35.28
2022-10-31T21:33:16.625Z,33.80
2022-10-31T21:36:05.726Z,34.97
2022-10-31T21:38:55.575Z,34.47
2022-10-31T21:41:44.483Z,34.67
2022-10-31T21:44:34.274Z,35.15
2022-10-31T21:47:22.839Z,34.53
2022-10-31T21:50:11.416Z,34.58
2022-10-31T21:53:20.603Z,35.00
2022-10-31T21:56:08.652Z,36.42
2022-10-31T21:58:57.484Z,35.33
2022-10-31T22:01:47.285Z,35.22
2022-10-31T22:04:35.783Z,35.28
2022-10-31T22:07:24.293Z,34.15
2022-10-31T22:10:12.774Z,34.05
2022-10-31T22:13:01.172Z,33.90
2022-10-31T22:15:49.475Z,35.67
2022-10-31T22:18:39.951Z,35.17
2022-10-31T22:21:29.758Z,35.05
2022-10-31T22:24:19.090Z,36.17
2022-10-31T22:27:07.429Z,35.38
2022-10-31T22:29:56.793Z,34.60
2022-10-31T22:32:45.245Z,34.10
2022-10-31T22:35:38.431Z,36.83
2022-10-31T22:38:26.758Z,35.65
2022-10-31T22:41:16.895Z,37.10
2022-10-31T22:44:06.211Z,34.40
2022-10-31T22:46:54.549Z,35.05
2022-10-31T22:49:43.392Z,35.97
2022-10-31T22:52:33.084Z,34.88
2022-10-31T22:55:21.380Z,33.97
2022-10-31T22:58:09.714Z,32.25
2022-10-31T23:00:58.179Z,35.83
2022-10-31T23:03:47.175Z,35.53
2022-10-31T23:06:35.463Z,36.20
2022-10-31T23:09:25.192Z,34.72
2022-10-31T23:12:36.570Z,34.17
2022-10-31T23:15:24.899Z,34.95
2022-10-31T23:18:23.884Z,37.58
2022-10-31T23:21:43.781Z,35.65
2022-10-31T23:24:37.626Z,36.63
2022-10-31T23:27:25.080Z,36.78
2022-10-31T23:30:13.534Z,37.28
2022-10-31T23:33:02.208Z,36.70
2022-10-31T23:35:50.688Z,37.08
2022-10-31T23:38:39.010Z,36.55
2022-10-31T23:41:28.641Z,37.17
2022-10-31T23:44:17.020Z,37.15
2022-10-31T23:47:05.871Z,35.92
2022-10-31T23:49:54.336Z,35.95
2022-10-31T23:52:42.639Z,35.53
2022-10-31T23:55:31.102Z,34.60
2022-10-31T23:58:20.773Z,34.33
